sensor_id;sensor_type;location;lat;lon;timestamp;temperature;humidity
5842;DHT22;2947;52.276;9.946;2022-11-15T00:00:51;8.30;99.90
5842;DHT22;2947;52.276;9.946;2022-11-15T00:03:19;8.30;99.90
5842;DHT22;2947;52.276;9.946;2022-11-15T00:05:46;8.20;99.90
5842;DHT22;2947;52.276;9.946;2022-11-15T00:08:12;8.20;99.90
5842;DHT22;2947;52.276;9.946;2022-11-15T00:10:38;8.20;99.90
5842;DHT22;2947;52.276;9.946;2022-11-15T00:13:08;8.10;99.90
5842;DHT22;2947;52.276;9.946;2022-11-15T00:15:36;8.10;99.90
5842;DHT22;2947;52.276;9.946;2022-11-15T00:18:06;8.10;99.90
5842;DHT22;2947;52.276;9.946;2022-11-15T00:20:36;8.10;99.90
5842;DHT22;2947;52.276;9.946;2022-11-15T00:23:03;8.10;99.90
5842;DHT22;2947;52.276;9.946;2022-11-15T00:25:29;8.10;99.90
5842;DHT22;2947;52.276;9.946;2022-11-15T00:27:56;8.00;99.90
5842;DHT22;2947;52.276;9.946;2022-11-15T00:30:23;8.10;99.90
5842;DHT22;2947;52.276;9.946;2022-11-15T00:32:49;8.00;99.90
5842;DHT22;2947;52.276;9.946;2022-11-15T00:35:15;8.10;99.90
5842;DHT22;2947;52.276;9.946;2022-11-15T00:37:40;8.00;99.90
5842;DHT22;2947;52.276;9.946;2022-11-15T00:40:07;8.10;99.90
5842;DHT22;2947;52.276;9.946;2022-11-15T00:42:33;8.10;99.90
5842;DHT22;2947;52.276;9.946;2022-11-15T00:44:59;8.10;99.90
5842;DHT22;2947;52.276;9.946;2022-11-15T00:47:25;8.10;99.90
5842;DHT22;2947;52.276;9.946;2022-11-15T00:49:50;8.10;99.90
5842;DHT22;2947;52.276;9.946;2022-11-15T00:52:16;8.00;99.90
5842;DHT22;2947;52.276;9.946;2022-11-15T00:54:42;8.00;99.90
5842;DHT22;2947;52.276;9.946;2022-11-15T00:57:08;7.90;99.90
5842;DHT22;2947;52.276;9.946;2022-11-15T00:59:33;7.90;99.90
5842;DHT22;2947;52.276;9.946;2022-11-15T01:01:59;7.90;99.90
5842;DHT22;2947;52.276;9.946;2022-11-15T01:04:25;7.90;99.90
5842;DHT22;2947;52.276;9.946;2022-11-15T01:06:51;7.90;99.90
5842;DHT22;2947;52.276;9.946;2022-11-15T01:09:16;7.90;99.90
5842;DHT22;2947;52.276;9.946;2022-11-15T01:11:42;7.90;99.90
5842;DHT22;2947;52.276;9.946;2022-11-15T01:14:08;7.90;99.90
5842;DHT22;2947;52.276;9.946;2022-11-15T01:16:33;7.90;99.90
5842;DHT22;2947;52.276;9.946;2022-11-15T01:18:59;7.90;99.90
5842;DHT22;2947;52.276;9.946;2022-11-15T01:21:25;7.90;99.90
5842;DHT22;2947;52.276;9.946;2022-11-15T01:23:57;7.90;99.90
5842;DHT22;2947;52.276;9.946;2022-11-15T01:26:24;7.90;99.90
5842;DHT22;2947;52.276;9.946;2022-11-15T01:28:50;7.90;99.90
5842;DHT22;2947;52.276;9.946;2022-11-15T01:31:19;7.90;99.90
5842;DHT22;2947;52.276;9.946;2022-11-15T01:33:46;7.90;99.90
5842;DHT22;2947;52.276;9.946;2022-11-15T01:36:15;8.00;99.90
5842;DHT22;2947;52.276;9.946;2022-11-15T01:38:43;8.00;99.90
5842;DHT22;2947;52.276;9.946;2022-11-15T01:41:17;8.00;99.90
5842;DHT22;2947;52.276;9.946;2022-11-15T01:43:48;8.00;99.90
5842;DHT22;2947;52.276;9.946;2022-11-15T01:46:24;8.10;99.90
5842;DHT22;2947;52.276;9.946;2022-11-15T01:48:59;8.20;99.90
5842;DHT22;2947;52.276;9.946;2022-11-15T01:51:28;8.30;99.90
5842;DHT22;2947;52.276;9.946;2022-11-15T01:54:00;8.30;99.90
5842;DHT22;2947;52.276;9.946;2022-11-15T01:56:30;8.40;99.90
5842;DHT22;2947;52.276;9.946;2022-11-15T01:59:02;8.40;99.90
5842;DHT22;2947;52.276;9.946;2022-11-15T02:01:30;8.40;99.90
5842;DHT22;2947;52.276;9.946;2022-11-15T02:04:28;8.40;99.90
5842;DHT22;2947;52.276;9.946;2022-11-15T02:06:57;8.50;99.90
5842;DHT22;2947;52.276;9.946;2022-11-15T02:09:22;8.50;99.90
5842;DHT22;2947;52.276;9.946;2022-11-15T02:11:49;8.60;99.90
5842;DHT22;2947;52.276;9.946;2022-11-15T02:14:17;8.60;99.90
5842;DHT22;2947;52.276;9.946;2022-11-15T02:19:52;8.70;99.90
5842;DHT22;2947;52.276;9.946;2022-11-15T02:22:46;8.70;99.90
5842;DHT22;2947;52.276;9.946;2022-11-15T02:29:08;8.70;99.90
5842;DHT22;2947;52.276;9.946;2022-11-15T02:34:51;8.80;99.90
5842;DHT22;2947;52.276;9.946;2022-11-15T02:38:00;8.90;99.90
5842;DHT22;2947;52.276;9.946;2022-11-15T02:43:53;9.00;99.90
5842;DHT22;2947;52.276;9.946;2022-11-15T02:46:47;9.00;99.90
5842;DHT22;2947;52.276;9.946;2022-11-15T02:49:34;9.10;99.90
5842;DHT22;2947;52.276;9.946;2022-11-15T02:52:01;9.20;99.90
5842;DHT22;2947;52.276;9.946;2022-11-15T02:54:30;9.30;99.90
5842;DHT22;2947;52.276;9.946;2022-11-15T02:57:16;9.30;99.90
5842;DHT22;2947;52.276;9.946;2022-11-15T03:02:33;9.40;99.90
5842;DHT22;2947;52.276;9.946;2022-11-15T03:05:17;9.50;99.90
5842;DHT22;2947;52.276;9.946;2022-11-15T03:08:10;9.60;99.90
5842;DHT22;2947;52.276;9.946;2022-11-15T03:11:09;9.60;99.90
5842;DHT22;2947;52.276;9.946;2022-11-15T03:14:02;9.70;99.90
5842;DHT22;2947;52.276;9.946;2022-11-15T03:16:51;9.70;99.90
5842;DHT22;2947;52.276;9.946;2022-11-15T03:19:35;9.80;99.90
5842;DHT22;2947;52.276;9.946;2022-11-15T03:22:14;9.90;99.90
5842;DHT22;2947;52.276;9.946;2022-11-15T03:24:44;9.90;99.90
5842;DHT22;2947;52.276;9.946;2022-11-15T03:27:15;9.90;99.90
5842;DHT22;2947;52.276;9.946;2022-11-15T03:29:46;9.90;99.90
5842;DHT22;2947;52.276;9.946;2022-11-15T03:32:18;10.00;99.90
5842;DHT22;2947;52.276;9.946;2022-11-15T03:34:57;10.00;99.90
5842;DHT22;2947;52.276;9.946;2022-11-15T03:37:52;10.10;99.90
5842;DHT22;2947;52.276;9.946;2022-11-15T03:40:38;10.10;99.90
5842;DHT22;2947;52.276;9.946;2022-11-15T03:43:22;10.00;99.90
5842;DHT22;2947;52.276;9.946;2022-11-15T03:46:07;10.10;99.90
5842;DHT22;2947;52.276;9.946;2022-11-15T03:48:40;10.10;99.90
5842;DHT22;2947;52.276;9.946;2022-11-15T03:51:09;10.10;99.90
5842;DHT22;2947;52.276;9.946;2022-11-15T03:53:35;10.20;99.90
5842;DHT22;2947;52.276;9.946;2022-11-15T03:56:01;10.20;99.90
5842;DHT22;2947;52.276;9.946;2022-11-15T03:58:27;10.20;99.90
5842;DHT22;2947;52.276;9.946;2022-11-15T04:00:52;10.10;99.90
5842;DHT22;2947;52.276;9.946;2022-11-15T04:03:18;10.20;99.90
5842;DHT22;2947;52.276;9.946;2022-11-15T04:05:44;10.10;99.90
5842;DHT22;2947;52.276;9.946;2022-11-15T04:08:09;10.10;99.90
5842;DHT22;2947;52.276;9.946;2022-11-15T04:10:35;10.20;99.90
5842;DHT22;2947;52.276;9.946;2022-11-15T04:13:02;10.10;99.90
5842;DHT22;2947;52.276;9.946;2022-11-15T04:15:28;10.10;99.90
5842;DHT22;2947;52.276;9.946;2022-11-15T04:17:56;10.20;99.90
5842;DHT22;2947;52.276;9.946;2022-11-15T04:20:28;10.10;99.90
5842;DHT22;2947;52.276;9.946;2022-11-15T04:23:22;10.10;99.90
5842;DHT22;2947;52.276;9.946;2022-11-15T04:26:26;10.10;99.90
5842;DHT22;2947;52.276;9.946;2022-11-15T04:28:52;10.10;99.90
5842;DHT22;2947;52.276;9.946;2022-11-15T04:31:36;10.10;99.90
5842;DHT22;2947;52.276;9.946;2022-11-15T04:34:02;10.10;99.90
5842;DHT22;2947;52.276;9.946;2022-11-15T04:36:28;10.00;99.90
5842;DHT22;2947;52.276;9.946;2022-11-15T04:39:12;10.00;99.90
5842;DHT22;2947;52.276;9.946;2022-11-15T04:41:38;10.00;99.90
5842;DHT22;2947;52.276;9.946;2022-11-15T04:44:03;10.00;99.90
5842;DHT22;2947;52.276;9.946;2022-11-15T04:46:29;10.00;99.90
5842;DHT22;2947;52.276;9.946;2022-11-15T04:48:55;10.00;99.90
5842;DHT22;2947;52.276;9.946;2022-11-15T04:51:21;10.00;99.90
5842;DHT22;2947;52.276;9.946;2022-11-15T04:53:46;10.00;99.90
5842;DHT22;2947;52.276;9.946;2022-11-15T04:56:12;10.00;99.90
5842;DHT22;2947;52.276;9.946;2022-11-15T04:58:38;10.00;99.90
5842;DHT22;2947;52.276;9.946;2022-11-15T05:01:10;10.00;99.90
5842;DHT22;2947;52.276;9.946;2022-11-15T05:03:37;10.00;99.90
5842;DHT22;2947;52.276;9.946;2022-11-15T05:06:38;10.00;99.90
5842;DHT22;2947;52.276;9.946;2022-11-15T05:09:04;10.00;99.90
5842;DHT22;2947;52.276;9.946;2022-11-15T05:11:30;10.00;99.90
5842;DHT22;2947;52.276;9.946;2022-11-15T05:13:56;10.00;99.90
5842;DHT22;2947;52.276;9.946;2022-11-15T05:16:22;10.00;99.90
5842;DHT22;2947;52.276;9.946;2022-11-15T05:18:51;9.90;99.90
5842;DHT22;2947;52.276;9.946;2022-11-15T05:21:17;9.90;99.90
5842;DHT22;2947;52.276;9.946;2022-11-15T05:23:43;9.90;99.90
5842;DHT22;2947;52.276;9.946;2022-11-15T05:26:09;9.90;99.90
5842;DHT22;2947;52.276;9.946;2022-11-15T05:28:35;9.90;99.90
5842;DHT22;2947;52.276;9.946;2022-11-15T05:31:06;9.90;99.90
5842;DHT22;2947;52.276;9.946;2022-11-15T05:33:34;9.90;99.90
5842;DHT22;2947;52.276;9.946;2022-11-15T05:38:52;9.90;99.90
5842;DHT22;2947;52.276;9.946;2022-11-15T05:41:20;9.90;99.90
5842;DHT22;2947;52.276;9.946;2022-11-15T05:43:50;9.90;99.90
5842;DHT22;2947;52.276;9.946;2022-11-15T05:46:16;9.90;99.90
5842;DHT22;2947;52.276;9.946;2022-11-15T05:48:46;9.90;99.90
5842;DHT22;2947;52.276;9.946;2022-11-15T05:51:15;9.90;99.90
5842;DHT22;2947;52.276;9.946;2022-11-15T05:53:43;9.90;99.90
5842;DHT22;2947;52.276;9.946;2022-11-15T05:56:10;9.80;99.90
5842;DHT22;2947;52.276;9.946;2022-11-15T05:58:36;9.80;99.90
5842;DHT22;2947;52.276;9.946;2022-11-15T06:01:02;9.80;99.90
5842;DHT22;2947;52.276;9.946;2022-11-15T06:03:28;9.80;99.90
5842;DHT22;2947;52.276;9.946;2022-11-15T06:05:54;9.80;99.90
5842;DHT22;2947;52.276;9.946;2022-11-15T06:08:20;9.70;99.90
5842;DHT22;2947;52.276;9.946;2022-11-15T06:10:45;9.70;99.90
5842;DHT22;2947;52.276;9.946;2022-11-15T06:13:11;9.70;99.90
5842;DHT22;2947;52.276;9.946;2022-11-15T06:15:37;9.60;99.90
5842;DHT22;2947;52.276;9.946;2022-11-15T06:18:02;9.60;99.90
5842;DHT22;2947;52.276;9.946;2022-11-15T06:20:29;9.60;99.90
5842;DHT22;2947;52.276;9.946;2022-11-15T06:22:59;9.60;99.90
5842;DHT22;2947;52.276;9.946;2022-11-15T06:25:26;9.60;99.90
5842;DHT22;2947;52.276;9.946;2022-11-15T06:27:53;9.60;99.90
5842;DHT22;2947;52.276;9.946;2022-11-15T06:30:20;9.60;99.90
5842;DHT22;2947;52.276;9.946;2022-11-15T06:32:47;9.60;99.90
5842;DHT22;2947;52.276;9.946;2022-11-15T06:35:13;9.70;99.90
5842;DHT22;2947;52.276;9.946;2022-11-15T06:37:40;9.70;99.90
5842;DHT22;2947;52.276;9.946;2022-11-15T06:40:07;9.60;99.90
5842;DHT22;2947;52.276;9.946;2022-11-15T06:42:34;9.60;99.90
5842;DHT22;2947;52.276;9.946;2022-11-15T06:45:00;9.60;99.90
5842;DHT22;2947;52.276;9.946;2022-11-15T06:47:25;9.60;99.90
5842;DHT22;2947;52.276;9.946;2022-11-15T06:49:51;9.50;99.90
5842;DHT22;2947;52.276;9.946;2022-11-15T06:52:17;9.60;99.90
5842;DHT22;2947;52.276;9.946;2022-11-15T06:54:46;9.60;99.90
5842;DHT22;2947;52.276;9.946;2022-11-15T06:57:12;9.50;99.90
5842;DHT22;2947;52.276;9.946;2022-11-15T06:59:38;9.60;99.90
5842;DHT22;2947;52.276;9.946;2022-11-15T07:02:03;9.60;99.90
5842;DHT22;2947;52.276;9.946;2022-11-15T07:04:29;9.50;99.90
5842;DHT22;2947;52.276;9.946;2022-11-15T07:06:55;9.50;99.90
5842;DHT22;2947;52.276;9.946;2022-11-15T07:09:21;9.50;99.90
5842;DHT22;2947;52.276;9.946;2022-11-15T07:11:46;9.50;99.90
5842;DHT22;2947;52.276;9.946;2022-11-15T07:14:12;9.50;99.90
5842;DHT22;2947;52.276;9.946;2022-11-15T07:16:38;9.60;99.90
5842;DHT22;2947;52.276;9.946;2022-11-15T07:19:03;9.60;99.90
5842;DHT22;2947;52.276;9.946;2022-11-15T07:21:29;9.70;99.90
5842;DHT22;2947;52.276;9.946;2022-11-15T07:23:55;9.70;99.90
5842;DHT22;2947;52.276;9.946;2022-11-15T07:26:20;9.80;99.90
5842;DHT22;2947;52.276;9.946;2022-11-15T07:28:46;9.80;99.90
5842;DHT22;2947;52.276;9.946;2022-11-15T07:31:12;9.90;99.90
5842;DHT22;2947;52.276;9.946;2022-11-15T07:33:38;9.90;99.90
5842;DHT22;2947;52.276;9.946;2022-11-15T07:36:05;10.00;99.90
5842;DHT22;2947;52.276;9.946;2022-11-15T07:38:33;10.00;99.90
5842;DHT22;2947;52.276;9.946;2022-11-15T07:41:01;10.10;99.90
5842;DHT22;2947;52.276;9.946;2022-11-15T07:43:30;10.20;99.90
5842;DHT22;2947;52.276;9.946;2022-11-15T07:45:58;10.20;99.90
5842;DHT22;2947;52.276;9.946;2022-11-15T07:48:24;10.30;99.90
5842;DHT22;2947;52.276;9.946;2022-11-15T07:50:49;10.30;99.90
5842;DHT22;2947;52.276;9.946;2022-11-15T07:53:15;10.30;99.90
5842;DHT22;2947;52.276;9.946;2022-11-15T07:55:41;10.40;99.90
5842;DHT22;2947;52.276;9.946;2022-11-15T07:58:10;10.40;99.90
5842;DHT22;2947;52.276;9.946;2022-11-15T08:00:37;10.40;99.90
5842;DHT22;2947;52.276;9.946;2022-11-15T08:03:08;10.40;99.90
5842;DHT22;2947;52.276;9.946;2022-11-15T08:05:35;10.30;99.90
5842;DHT22;2947;52.276;9.946;2022-11-15T08:08:04;10.30;99.90
5842;DHT22;2947;52.276;9.946;2022-11-15T08:10:31;10.30;99.90
5842;DHT22;2947;52.276;9.946;2022-11-15T08:13:11;10.30;99.90
5842;DHT22;2947;52.276;9.946;2022-11-15T08:15:37;10.30;99.90
5842;DHT22;2947;52.276;9.946;2022-11-15T08:18:10;10.20;99.90
5842;DHT22;2947;52.276;9.946;2022-11-15T08:20:39;10.30;99.90
5842;DHT22;2947;52.276;9.946;2022-11-15T08:23:05;10.20;99.90
5842;DHT22;2947;52.276;9.946;2022-11-15T08:25:33;10.30;99.90
5842;DHT22;2947;52.276;9.946;2022-11-15T08:28:02;10.20;99.90
5842;DHT22;2947;52.276;9.946;2022-11-15T08:30:30;10.20;99.90
5842;DHT22;2947;52.276;9.946;2022-11-15T08:32:58;10.30;99.90
5842;DHT22;2947;52.276;9.946;2022-11-15T08:35:24;10.30;99.90
5842;DHT22;2947;52.276;9.946;2022-11-15T08:37:52;10.30;99.90
5842;DHT22;2947;52.276;9.946;2022-11-15T08:40:18;10.40;99.90
5842;DHT22;2947;52.276;9.946;2022-11-15T08:42:46;10.40;99.90
5842;DHT22;2947;52.276;9.946;2022-11-15T08:45:13;10.60;99.90
5842;DHT22;2947;52.276;9.946;2022-11-15T08:47:39;10.60;99.90
5842;DHT22;2947;52.276;9.946;2022-11-15T08:50:05;10.70;99.90
5842;DHT22;2947;52.276;9.946;2022-11-15T08:52:31;10.80;99.90
5842;DHT22;2947;52.276;9.946;2022-11-15T08:54:57;10.90;99.90
5842;DHT22;2947;52.276;9.946;2022-11-15T08:57:23;11.00;99.90
5842;DHT22;2947;52.276;9.946;2022-11-15T08:59:49;11.10;99.90
5842;DHT22;2947;52.276;9.946;2022-11-15T09:02:15;11.20;99.90
5842;DHT22;2947;52.276;9.946;2022-11-15T09:04:42;11.20;99.90
5842;DHT22;2947;52.276;9.946;2022-11-15T09:07:11;11.10;99.90
5842;DHT22;2947;52.276;9.946;2022-11-15T09:09:37;11.20;99.90
5842;DHT22;2947;52.276;9.946;2022-11-15T09:12:04;11.20;99.90
5842;DHT22;2947;52.276;9.946;2022-11-15T09:14:30;11.20;99.90
5842;DHT22;2947;52.276;9.946;2022-11-15T09:16:56;11.30;99.90
5842;DHT22;2947;52.276;9.946;2022-11-15T09:19:22;11.30;99.90
5842;DHT22;2947;52.276;9.946;2022-11-15T09:21:48;11.40;99.90
5842;DHT22;2947;52.276;9.946;2022-11-15T09:24:14;11.50;99.90
5842;DHT22;2947;52.276;9.946;2022-11-15T09:26:40;11.50;99.90
5842;DHT22;2947;52.276;9.946;2022-11-15T09:29:06;11.50;99.90
5842;DHT22;2947;52.276;9.946;2022-11-15T09:31:32;11.60;99.90
5842;DHT22;2947;52.276;9.946;2022-11-15T09:33:57;11.70;99.90
5842;DHT22;2947;52.276;9.946;2022-11-15T09:36:23;11.80;99.90
5842;DHT22;2947;52.276;9.946;2022-11-15T09:38:49;11.90;99.90
5842;DHT22;2947;52.276;9.946;2022-11-15T09:50:14;12.20;99.90
5842;DHT22;2947;52.276;9.946;2022-11-15T09:52:52;12.30;99.90
5842;DHT22;2947;52.276;9.946;2022-11-15T09:55:28;12.40;99.90
5842;DHT22;2947;52.276;9.946;2022-11-15T10:00:51;12.60;99.90
5842;DHT22;2947;52.276;9.946;2022-11-15T10:03:20;12.60;99.90
5842;DHT22;2947;52.276;9.946;2022-11-15T10:05:53;12.70;95.80
5842;DHT22;2947;52.276;9.946;2022-11-15T10:08:44;12.70;87.00
5842;DHT22;2947;52.276;9.946;2022-11-15T10:11:31;12.80;71.20
5842;DHT22;2947;52.276;9.946;2022-11-15T10:14:02;12.90;76.90
5842;DHT22;2947;52.276;9.946;2022-11-15T10:19:49;13.00;65.10
5842;DHT22;2947;52.276;9.946;2022-11-15T10:22:27;13.00;50.80
5842;DHT22;2947;52.276;9.946;2022-11-15T10:25:10;13.10;38.90
5842;DHT22;2947;52.276;9.946;2022-11-15T10:27:42;13.10;41.50
5842;DHT22;2947;52.276;9.946;2022-11-15T10:30:16;13.20;49.10
5842;DHT22;2947;52.276;9.946;2022-11-15T10:32:44;13.20;30.60
5842;DHT22;2947;52.276;9.946;2022-11-15T10:35:36;13.30;25.50
5842;DHT22;2947;52.276;9.946;2022-11-15T10:38:10;13.30;27.30
5842;DHT22;2947;52.276;9.946;2022-11-15T10:40:38;13.40;37.50
5842;DHT22;2947;52.276;9.946;2022-11-15T10:45:34;13.60;28.10
5842;DHT22;2947;52.276;9.946;2022-11-15T10:50:43;13.60;15.70
5842;DHT22;2947;52.276;9.946;2022-11-15T10:53:22;13.70;18.10
5842;DHT22;2947;52.276;9.946;2022-11-15T10:55:54;13.70;14.70
5842;DHT22;2947;52.276;9.946;2022-11-15T10:58:34;13.70;6.80
5842;DHT22;2947;52.276;9.946;2022-11-15T11:01:28;13.70;15.30
5842;DHT22;2947;52.276;9.946;2022-11-15T11:04:08;13.70;13.20
5842;DHT22;2947;52.276;9.946;2022-11-15T11:11:51;13.70;8.50
5842;DHT22;2947;52.276;9.946;2022-11-15T11:14:31;13.70;3.70
5842;DHT22;2947;52.276;9.946;2022-11-15T11:20:30;13.80;11.70
5842;DHT22;2947;52.276;9.946;2022-11-15T11:23:36;13.80;7.00
5842;DHT22;2947;52.276;9.946;2022-11-15T11:29:02;13.80;6.50
5842;DHT22;2947;52.276;9.946;2022-11-15T11:31:57;13.80;2.10
5842;DHT22;2947;52.276;9.946;2022-11-15T11:34:50;13.80;1.00
5842;DHT22;2947;52.276;9.946;2022-11-15T11:37:45;13.80;99.90
5842;DHT22;2947;52.276;9.946;2022-11-15T11:40:19;13.80;99.90
5842;DHT22;2947;52.276;9.946;2022-11-15T11:45:58;13.70;99.90
5842;DHT22;2947;52.276;9.946;2022-11-15T11:48:40;13.80;99.90
5842;DHT22;2947;52.276;9.946;2022-11-15T11:54:01;13.70;99.90
5842;DHT22;2947;52.276;9.946;2022-11-15T11:56:32;13.70;99.90
5842;DHT22;2947;52.276;9.946;2022-11-15T11:59:10;13.70;99.90
5842;DHT22;2947;52.276;9.946;2022-11-15T12:01:43;13.70;99.90
5842;DHT22;2947;52.276;9.946;2022-11-15T12:04:32;13.60;99.90
5842;DHT22;2947;52.276;9.946;2022-11-15T12:07:22;13.60;99.90
5842;DHT22;2947;52.276;9.946;2022-11-15T12:13:08;13.60;99.90
5842;DHT22;2947;52.276;9.946;2022-11-15T12:15:47;13.60;99.90
5842;DHT22;2947;52.276;9.946;2022-11-15T12:18:17;13.70;99.90
5842;DHT22;2947;52.276;9.946;2022-11-15T12:23:44;13.80;99.90
5842;DHT22;2947;52.276;9.946;2022-11-15T12:26:22;13.90;99.90
5842;DHT22;2947;52.276;9.946;2022-11-15T12:28:55;13.90;99.90
5842;DHT22;2947;52.276;9.946;2022-11-15T12:31:32;13.80;99.90
5842;DHT22;2947;52.276;9.946;2022-11-15T12:36:49;13.90;99.90
5842;DHT22;2947;52.276;9.946;2022-11-15T12:39:16;13.90;99.90
5842;DHT22;2947;52.276;9.946;2022-11-15T12:59:51;14.00;99.90
5842;DHT22;2947;52.276;9.946;2022-11-15T13:02:30;14.00;99.90
5842;DHT22;2947;52.276;9.946;2022-11-15T13:17:49;14.10;99.90
5842;DHT22;2947;52.276;9.946;2022-11-15T13:22:58;14.20;99.90
5842;DHT22;2947;52.276;9.946;2022-11-15T13:30:52;14.20;1.00
5842;DHT22;2947;52.276;9.946;2022-11-15T13:33:34;14.20;30.00
5842;DHT22;2947;52.276;9.946;2022-11-15T13:36:06;14.20;1.00
5842;DHT22;2947;52.276;9.946;2022-11-15T13:38:36;14.20;1.00
5842;DHT22;2947;52.276;9.946;2022-11-15T13:41:21;14.30;1.00
5842;DHT22;2947;52.276;9.946;2022-11-15T13:43:55;14.30;1.00
5842;DHT22;2947;52.276;9.946;2022-11-15T13:46:29;14.40;99.90
5842;DHT22;2947;52.276;9.946;2022-11-15T13:48:57;14.40;99.90
5842;DHT22;2947;52.276;9.946;2022-11-15T13:56:39;14.50;41.80
5842;DHT22;2947;52.276;9.946;2022-11-15T13:59:24;14.50;1.00
5842;DHT22;2947;52.276;9.946;2022-11-15T14:01:55;14.60;99.90
5842;DHT22;2947;52.276;9.946;2022-11-15T14:04:25;14.60;1.00
5842;DHT22;2947;52.276;9.946;2022-11-15T14:06:56;14.60;99.90
5842;DHT22;2947;52.276;9.946;2022-11-15T14:09:40;14.70;1.00
5842;DHT22;2947;52.276;9.946;2022-11-15T14:12:28;14.70;99.90
5842;DHT22;2947;52.276;9.946;2022-11-15T14:15:01;14.70;99.90
5842;DHT22;2947;52.276;9.946;2022-11-15T14:17:46;14.70;99.90
5842;DHT22;2947;52.276;9.946;2022-11-15T14:20:31;14.80;99.90
5842;DHT22;2947;52.276;9.946;2022-11-15T14:23:01;14.80;1.00
5842;DHT22;2947;52.276;9.946;2022-11-15T14:25:30;14.80;1.00
5842;DHT22;2947;52.276;9.946;2022-11-15T14:28:16;14.80;1.00
5842;DHT22;2947;52.276;9.946;2022-11-15T14:30:57;14.80;1.00
5842;DHT22;2947;52.276;9.946;2022-11-15T14:33:34;14.70;99.90
5842;DHT22;2947;52.276;9.946;2022-11-15T14:38:37;14.70;99.90
5842;DHT22;2947;52.276;9.946;2022-11-15T14:41:03;14.60;1.00
5842;DHT22;2947;52.276;9.946;2022-11-15T14:43:30;14.60;1.00
5842;DHT22;2947;52.276;9.946;2022-11-15T14:45:56;14.50;99.90
5842;DHT22;2947;52.276;9.946;2022-11-15T14:48:21;14.50;1.00
5842;DHT22;2947;52.276;9.946;2022-11-15T14:50:47;14.50;99.90
5842;DHT22;2947;52.276;9.946;2022-11-15T14:53:15;14.50;99.90
5842;DHT22;2947;52.276;9.946;2022-11-15T14:55:42;14.40;99.90
5842;DHT22;2947;52.276;9.946;2022-11-15T14:58:08;14.40;35.00
5842;DHT22;2947;52.276;9.946;2022-11-15T15:00:36;14.40;1.00
5842;DHT22;2947;52.276;9.946;2022-11-15T15:03:04;14.40;1.00
5842;DHT22;2947;52.276;9.946;2022-11-15T15:05:39;14.30;38.30
5842;DHT22;2947;52.276;9.946;2022-11-15T15:08:07;14.30;1.00
5842;DHT22;2947;52.276;9.946;2022-11-15T15:10:37;14.30;1.00
5842;DHT22;2947;52.276;9.946;2022-11-15T15:13:05;14.30;1.00
5842;DHT22;2947;52.276;9.946;2022-11-15T15:15:36;14.30;1.00
5842;DHT22;2947;52.276;9.946;2022-11-15T15:18:03;14.20;99.90
5842;DHT22;2947;52.276;9.946;2022-11-15T15:20:31;14.20;1.00
5842;DHT22;2947;52.276;9.946;2022-11-15T15:22:57;14.20;1.00
5842;DHT22;2947;52.276;9.946;2022-11-15T15:25:31;14.20;99.90
5842;DHT22;2947;52.276;9.946;2022-11-15T15:27:58;14.20;1.00
5842;DHT22;2947;52.276;9.946;2022-11-15T15:30:26;14.20;1.00
5842;DHT22;2947;52.276;9.946;2022-11-15T15:32:55;14.10;99.90
5842;DHT22;2947;52.276;9.946;2022-11-15T15:35:21;14.10;99.90
5842;DHT22;2947;52.276;9.946;2022-11-15T15:37:48;14.10;99.90
5842;DHT22;2947;52.276;9.946;2022-11-15T15:40:24;14.10;1.00
5842;DHT22;2947;52.276;9.946;2022-11-15T15:42:51;14.00;1.00
5842;DHT22;2947;52.276;9.946;2022-11-15T15:45:18;14.00;1.00
5842;DHT22;2947;52.276;9.946;2022-11-15T15:47:45;14.10;1.00
5842;DHT22;2947;52.276;9.946;2022-11-15T15:52:47;14.00;1.00
5842;DHT22;2947;52.276;9.946;2022-11-15T15:55:13;13.90;1.00
5842;DHT22;2947;52.276;9.946;2022-11-15T15:57:39;13.90;1.00
5842;DHT22;2947;52.276;9.946;2022-11-15T16:00:05;13.90;1.00
5842;DHT22;2947;52.276;9.946;2022-11-15T16:02:31;13.80;1.00
5842;DHT22;2947;52.276;9.946;2022-11-15T16:04:57;13.80;1.00
5842;DHT22;2947;52.276;9.946;2022-11-15T16:07:23;13.80;1.00
5842;DHT22;2947;52.276;9.946;2022-11-15T16:09:50;13.80;1.00
5842;DHT22;2947;52.276;9.946;2022-11-15T16:12:35;13.80;1.00
5842;DHT22;2947;52.276;9.946;2022-11-15T16:15:02;13.70;1.00
5842;DHT22;2947;52.276;9.946;2022-11-15T16:17:32;13.70;1.00
5842;DHT22;2947;52.276;9.946;2022-11-15T16:20:00;13.70;1.00
5842;DHT22;2947;52.276;9.946;2022-11-15T16:22:26;13.60;1.00
5842;DHT22;2947;52.276;9.946;2022-11-15T16:24:53;13.60;1.00
5842;DHT22;2947;52.276;9.946;2022-11-15T16:27:20;13.50;1.00
5842;DHT22;2947;52.276;9.946;2022-11-15T16:29:47;13.50;1.00
5842;DHT22;2947;52.276;9.946;2022-11-15T16:32:13;13.40;1.00
5842;DHT22;2947;52.276;9.946;2022-11-15T16:34:39;13.40;1.00
5842;DHT22;2947;52.276;9.946;2022-11-15T16:37:05;13.30;1.00
5842;DHT22;2947;52.276;9.946;2022-11-15T16:39:31;13.30;1.00
5842;DHT22;2947;52.276;9.946;2022-11-15T16:41:58;13.20;1.00
5842;DHT22;2947;52.276;9.946;2022-11-15T16:44:24;13.10;1.00
5842;DHT22;2947;52.276;9.946;2022-11-15T16:46:50;13.10;1.00
5842;DHT22;2947;52.276;9.946;2022-11-15T16:49:17;13.10;1.00
5842;DHT22;2947;52.276;9.946;2022-11-15T16:51:47;13.10;1.00
5842;DHT22;2947;52.276;9.946;2022-11-15T16:54:14;13.00;1.00
5842;DHT22;2947;52.276;9.946;2022-11-15T16:56:40;13.00;1.00
5842;DHT22;2947;52.276;9.946;2022-11-15T16:59:06;13.00;1.00
5842;DHT22;2947;52.276;9.946;2022-11-15T17:01:35;12.90;1.00
5842;DHT22;2947;52.276;9.946;2022-11-15T17:04:11;12.90;1.00
5842;DHT22;2947;52.276;9.946;2022-11-15T17:06:38;12.80;1.00
5842;DHT22;2947;52.276;9.946;2022-11-15T17:09:06;12.80;1.00
5842;DHT22;2947;52.276;9.946;2022-11-15T17:11:33;12.80;1.00
5842;DHT22;2947;52.276;9.946;2022-11-15T17:13:59;12.70;1.00
5842;DHT22;2947;52.276;9.946;2022-11-15T17:16:25;12.70;1.00
5842;DHT22;2947;52.276;9.946;2022-11-15T17:18:51;12.60;1.00
5842;DHT22;2947;52.276;9.946;2022-11-15T17:21:19;12.60;5.20
5842;DHT22;2947;52.276;9.946;2022-11-15T17:23:46;12.50;9.80
5842;DHT22;2947;52.276;9.946;2022-11-15T17:26:13;12.50;7.30
5842;DHT22;2947;52.276;9.946;2022-11-15T17:28:40;12.50;14.70
5842;DHT22;2947;52.276;9.946;2022-11-15T17:31:08;12.50;15.80
5842;DHT22;2947;52.276;9.946;2022-11-15T17:33:36;12.50;18.80
5842;DHT22;2947;52.276;9.946;2022-11-15T17:36:04;12.50;22.60
5842;DHT22;2947;52.276;9.946;2022-11-15T17:38:32;12.40;14.40
5842;DHT22;2947;52.276;9.946;2022-11-15T17:41:01;12.50;16.10
5842;DHT22;2947;52.276;9.946;2022-11-15T17:43:35;12.40;15.10
5842;DHT22;2947;52.276;9.946;2022-11-15T17:46:05;12.40;10.80
5842;DHT22;2947;52.276;9.946;2022-11-15T17:48:32;12.40;3.20
5842;DHT22;2947;52.276;9.946;2022-11-15T17:51:04;12.50;1.00
5842;DHT22;2947;52.276;9.946;2022-11-15T17:53:36;12.40;1.00
5842;DHT22;2947;52.276;9.946;2022-11-15T17:56:05;12.40;1.00
5842;DHT22;2947;52.276;9.946;2022-11-15T17:58:35;12.40;1.00
5842;DHT22;2947;52.276;9.946;2022-11-15T18:01:17;12.40;1.00
5842;DHT22;2947;52.276;9.946;2022-11-15T18:03:44;12.40;1.00
5842;DHT22;2947;52.276;9.946;2022-11-15T18:06:11;12.40;1.00
5842;DHT22;2947;52.276;9.946;2022-11-15T18:08:39;12.40;1.00
5842;DHT22;2947;52.276;9.946;2022-11-15T18:11:09;12.40;1.00
5842;DHT22;2947;52.276;9.946;2022-11-15T18:13:37;12.30;1.00
5842;DHT22;2947;52.276;9.946;2022-11-15T18:16:06;12.30;1.00
5842;DHT22;2947;52.276;9.946;2022-11-15T18:18:35;12.30;1.00
5842;DHT22;2947;52.276;9.946;2022-11-15T18:21:05;12.30;1.00
5842;DHT22;2947;52.276;9.946;2022-11-15T18:23:34;12.30;1.00
5842;DHT22;2947;52.276;9.946;2022-11-15T18:26:02;12.30;1.00